FW3318 Weather Reports


Display with metric or nautical units.
time (UTC)temp
F
wind
direction
speed
MPH
gust
MPH
rain 1hr
in
rain 24hr
in
rain mn
in
humidity
%
barometer
mb
20240622002530 58 246 0.0 0.0 0.05 0.36 0.36 95 1011.7
20240622002031 57 246 0.0 0.0 0.06 0.36 0.36 95 1011.8
20240622001536 57 246 0.0 0.0 0.07 0.36 0.36 95 1011.7
20240622001029 57 246 0.0 0.0 0.08 0.36 0.36 95 1011.8
20240622000532 57 246 0.0 1.0 0.08 0.36 0.36 96 1011.7
20240622000043 57 246 0.0 1.0 0.08 0.36 0.36 95 1011.7
20240621235529 57 246 0.0 0.0 0.09 0.36 0.36 95 1011.9
20240621235028 56 246 0.0 5.0 0.09 0.35 0.35 95 1011.9
20240621234531 56 246 0.0 5.0 0.09 0.35 0.35 95 1011.7
20240621234032 56 184 1.0 4.0 0.09 0.34 0.34 95 1011.8
20240621233528 56 202 1.0 4.0 0.09 0.33 0.33 95 1012.1
20240621233032 56 232 0.0 5.0 0.09 0.32 0.32 95 1012.1
20240621232531 56 230 0.0 5.0 0.08 0.31 0.31 95 1012.1
20240621232028 56 103 0.0 1.0 0.08 0.30 0.30 95 1012.2
20240621231528 56 103 0.0 1.0 0.07 0.28 0.28 95 1012.0
20240621231026 57 103 0.0 3.0 0.07 0.28 0.28 95 1011.8
20240621230530 57 103 0.0 3.0 0.07 0.28 0.28 94 1011.7
20240621230125 57 113 1.0 2.0 0.07 0.28 0.28 94 1011.7
20240621225525 57 312 0.0 0.0 0.07 0.27 0.27 94 1011.9
20240621225027 57 312 0.0 1.0 0.07 0.26 0.26 94 1012.0
20240621224525 57 312 0.0 1.0 0.09 0.25 0.25 94 1012.1
20240621224025 57 312 0.0 0.0 0.14 0.25 0.25 94 1012.2
20240621223524 57 312 0.0 0.0 0.21 0.24 0.24 94 1012.1
20240621223024 57 312 0.0 0.0 0.23 0.23 0.23 94 1012.0
20240621222524 57 312 0.0 0.0 0.23 0.23 0.23 94 1011.8
20240621222024 57 312 0.0 0.0 0.22 0.22 0.22 94 1011.7
20240621221524 57 312 0.0 0.0 0.22 0.22 0.22 93 1011.5
20240621221023 57 312 0.0 0.0 0.21 0.21 0.21 93 1011.3
20240621220522 57 312 0.0 0.0 0.21 0.21 0.21 91 1011.2
20240621220022 57 312 0.0 0.0 0.20 0.20 0.20 89 1011.3
20240621215523 57 312 0.0 0.0 0.20 0.20 0.20 87 1011.3
20240621215023 58 312 0.0 1.0 0.19 0.19 0.19 85 1011.4
20240621214522 59 312 0.0 4.0 0.16 0.16 0.16 81 1011.3
20240621214022 60 312 1.0 5.0 0.11 0.11 0.11 76 1011.3
20240621213521 65 308 3.0 5.0 0.03 0.03 0.03 69 1011.3
20240621213020 69 311 1.0 4.0 0.00 0.00 0.00 63 1011.0
20240621212521 71 303 1.0 3.0 0.00 0.00 0.00 55 1011.0
20240621212020 73 305 1.0 4.0 0.00 0.00 0.00 53 1011.0
20240621211520 75 304 2.0 4.0 0.00 0.00 0.00 49 1010.8
20240621211019 75 285 0.0 3.0 0.00 0.00 0.00 48 1010.9
20240621210518 75 96 1.0 7.0 0.00 0.00 0.00 49 1010.8
20240621210023 75 169 3.0 7.0 0.00 0.00 0.00 50 1010.8
20240621205515 75 96 1.0 7.0 0.00 0.00 0.00 50 1010.9
20240621205013 75 34 1.0 7.0 0.00 0.00 0.00 50 1011.0
20240621204512 74 132 1.0 3.0 0.00 0.00 0.00 52 1011.1
20240621204010 74 149 0.0 4.0 0.00 0.00 0.00 52 1011.1
20240621203510 74 98 1.0 4.0 0.00 0.00 0.00 53 1011.2
20240621203008 73 173 0.0 3.0 0.00 0.00 0.00 51 1011.3
20240621202507 73 118 0.0 3.0 0.00 0.00 0.00 53 1011.2
20240621202007 73 273 0.0 2.0 0.00 0.00 0.00 53 1011.3
20240621201507 73 196 0.0 3.0 0.00 0.00 0.00 56 1011.3
20240621201004 73 138 1.0 3.0 0.00 0.00 0.00 54 1011.3
20240621200502 72 139 1.0 3.0 0.00 0.00 0.00 54 1011.4
20240621200002 72 136 1.0 2.0 0.00 0.00 0.00 54 1011.5
20240621195600 72 146 0.0 2.0 0.00 0.00 0.00 53 1011.5
20240621195100 72 269 0.0 3.0 0.00 0.00 0.00 56 1011.5
20240621194617 72 269 1.0 3.0 0.00 0.00 0.00 55 1011.7
20240621194057 71 177 0.0 2.0 0.00 0.00 0.00 54 1011.7
20240621193558 71 169 0.0 3.0 0.00 0.00 0.00 57 1011.8
20240621193126 71 244 0.0 2.0 0.00 0.00 0.00 55 1011.8
20240621192555 71 243 0.0 2.0 0.00 0.00 0.00 55 1011.9
20240621192058 71 119 0.0 2.0 0.00 0.00 0.00 60 1011.9
20240621191553 71 119 0.0 2.0 0.00 0.00 0.00 58 1011.9
20240621191051 70 119 0.0 3.0 0.00 0.00 0.00 57 1011.9
20240621190551 70 126 0.0 2.0 0.00 0.00 0.00 59 1012.0
20240621190050 70 126 0.0 3.0 0.00 0.00 0.00 59 1012.1
20240621185549 70 126 0.0 3.0 0.00 0.00 0.00 60 1012.0
20240621185048 69 67 0.0 2.0 0.00 0.00 0.00 60 1012.0
20240621184546 69 215 0.0 2.0 0.00 0.00 0.00 63 1012.1
20240621184045 68 217 0.0 1.0 0.00 0.00 0.00 64 1012.1
20240621183543 67 217 0.0 1.0 0.00 0.00 0.00 63 1012.1
20240621183051 67 216 0.0 0.0 0.00 0.00 0.00 62 1012.1
20240621182541 67 216 0.0 0.0 0.00 0.00 0.00 62 1012.2
20240621182039 66 216 0.0 1.0 0.00 0.00 0.00 66 1012.2
20240621181545 66 216 0.0 2.0 0.00 0.00 0.00 65 1012.1
20240621181037 66 216 0.0 2.0 0.00 0.00 0.00 66 1012.2
20240621180537 66 215 1.0 2.0 0.00 0.00 0.00 68 1012.1
20240621180037 66 215 0.0 1.0 0.00 0.00 0.00 67 1012.2
20240621175536 66 215 0.0 3.0 0.00 0.00 0.00 67 1012.2
20240621175035 66 215 0.0 3.0 0.00 0.00 0.00 68 1012.2
20240621174535 65 167 0.0 2.0 0.00 0.00 0.00 69 1012.3
20240621174036 65 236 0.0 1.0 0.00 0.00 0.00 66 1012.2
20240621173532 64 237 0.0 2.0 0.00 0.00 0.00 67 1012.3
20240621173032 64 237 0.0 2.0 0.00 0.00 0.00 69 1012.3
20240621172531 64 207 0.0 2.0 0.00 0.00 0.00 69 1012.3
20240621172130 63 205 0.0 2.0 0.00 0.00 0.00 73 1012.4
20240621171530 63 205 0.0 2.0 0.00 0.00 0.00 71 1012.4
20240621171128 62 207 0.0 2.0 0.00 0.00 0.00 73 1012.4
20240621170525 62 207 0.0 2.0 0.00 0.00 0.00 75 1012.5
20240621170027 61 207 0.0 2.0 0.00 0.00 0.00 75 1012.4
20240621165524 61 207 0.0 3.0 0.00 0.00 0.00 74 1012.5
20240621165022 61 215 1.0 3.0 0.00 0.00 0.00 76 1012.5
20240621164521 61 215 0.0 2.0 0.00 0.00 0.00 75 1012.5
20240621164023 60 215 0.0 3.0 0.00 0.00 0.00 77 1012.5
20240621163519 60 215 0.0 3.0 0.00 0.00 0.00 76 1012.5
20240621163019 60 214 0.0 0.0 0.00 0.00 0.00 77 1012.5
20240621162517 60 214 0.0 3.0 0.00 0.00 0.00 77 1012.5
20240621162017 59 214 0.0 3.0 0.00 0.00 0.00 78 1012.5
20240621161516 59 222 1.0 3.0 0.00 0.00 0.00 80 1012.5
20240621161014 58 196 1.0 3.0 0.00 0.00 0.00 80 1012.6
20240621160515 58 179 0.0 2.0 0.00 0.00 0.00 79 1012.5
20240621160015 58 179 0.0 3.0 0.00 0.00 0.00 81 1012.6
20240621155515 57 202 1.0 3.0 0.00 0.00 0.00 81 1012.6
20240621155014 57 177 0.0 2.0 0.00 0.00 0.00 81 1012.6
20240621154514 56 177 0.0 1.0 0.00 0.00 0.00 82 1012.6
20240621154012 56 177 0.0 2.0 0.00 0.00 0.00 83 1012.6
20240621153511 55 177 0.0 2.0 0.00 0.00 0.00 83 1012.5
20240621153010 55 177 0.0 2.0 0.00 0.00 0.00 84 1012.5
20240621152510 54 177 0.0 2.0 0.00 0.00 0.00 85 1012.5
20240621152009 54 177 0.0 1.0 0.00 0.00 0.00 87 1012.5
20240621151518 53 177 0.0 1.0 0.00 0.00 0.00 87 1012.4
20240621151006 53 177 0.0 0.0 0.00 0.00 0.00 88 1012.5
20240621150506 53 177 0.0 0.0 0.00 0.00 0.00 88 1012.4
20240621150006 52 177 0.0 0.0 0.00 0.00 0.00 87 1012.4
20240621145505 52 177 0.0 0.0 0.00 0.00 0.00 87 1012.5
20240621145005 52 177 0.0 0.0 0.00 0.00 0.00 89 1012.5
20240621144504 51 177 0.0 0.0 0.00 0.00 0.00 89 1012.5
20240621144003 51 177 0.0 0.0 0.00 0.00 0.00 89 1012.4
20240621143503 51 177 0.0 0.0 0.00 0.00 0.00 90 1012.5
20240621143002 51 177 0.0 0.0 0.00 0.00 0.00 90 1012.5
20240621142501 50 177 0.0 0.0 0.00 0.00 0.00 90 1012.5
20240621142001 50 177 0.0 0.0 0.00 0.00 0.00 90 1012.5
20240621141501 50 177 0.0 0.0 0.00 0.00 0.00 90 1012.5
20240621141100 50 177 0.0 0.0 0.00 0.00 0.00 90 1012.6
20240621140559 50 177 0.0 0.0 0.00 0.00 0.00 90 1012.5
20240621140059 50 177 0.0 0.0 0.00 0.00 0.00 90 1012.4
20240621135558 50 177 0.0 0.0 0.00 0.00 0.00 89 1012.5
20240621135058 50 177 0.0 0.0 0.00 0.00 0.00 89 1012.4
20240621134601 49 177 0.0 0.0 0.00 0.00 0.00 89 1012.6
20240621134056 49 177 0.0 0.0 0.00 0.00 0.00 89 1012.5
20240621133557 49 177 0.0 0.0 0.00 0.00 0.00 89 1012.5
20240621133056 49 177 0.0 0.0 0.00 0.00 0.00 89 1012.5
20240621132555 49 177 0.0 0.0 0.00 0.00 0.00 89 1012.6
20240621132055 49 177 0.0 0.0 0.00 0.00 0.00 88 1012.5
20240621131554 49 177 0.0 0.0 0.00 0.00 0.00 88 1012.5
20240621131053 50 177 0.0 0.0 0.00 0.00 0.00 88 1012.6
20240621130552 50 177 0.0 0.0 0.00 0.00 0.00 87 1012.6
20240621130105 50 177 0.0 0.0 0.00 0.00 0.00 87 1012.6
20240621125552 50 177 0.0 0.0 0.00 0.00 0.00 87 1012.7
20240621125051 50 177 0.0 0.0 0.00 0.00 0.00 87 1012.7
20240621124550 50 177 0.0 0.0 0.00 0.00 0.00 87 1012.7
20240621124049 50 177 0.0 0.0 0.00 0.00 0.00 87 1012.5
20240621123549 50 177 0.0 0.0 0.00 0.00 0.00 86 1012.6
20240621123049 51 177 0.0 0.0 0.00 0.00 0.00 87 1012.5
20240621122547 51 177 0.0 0.0 0.00 0.00 0.00 87 1012.5
20240621122049 51 177 0.0 0.0 0.00 0.00 0.00 87 1012.6
20240621121548 51 177 0.0 0.0 0.00 0.00 0.00 87 1012.6
20240621121046 51 177 0.0 0.0 0.00 0.00 0.00 87 1012.6
20240621120545 51 177 0.0 0.0 0.00 0.00 0.00 87 1012.5
20240621120049 51 177 0.0 0.0 0.00 0.00 0.00 87 1012.5
20240621115542 51 177 0.0 0.0 0.00 0.00 0.00 86 1012.4
20240621115042 51 177 0.0 0.0 0.00 0.00 0.00 87 1012.4
20240621114542 51 177 0.0 0.0 0.00 0.00 0.00 87 1012.4
20240621114045 51 177 0.0 0.0 0.00 0.00 0.00 87 1012.3
20240621113541 51 177 0.0 0.0 0.00 0.00 0.00 87 1012.3
20240621113042 51 177 0.0 0.0 0.00 0.00 0.00 87 1012.3
20240621112541 51 177 0.0 0.0 0.00 0.00 0.00 86 1012.2
20240621112041 51 177 0.0 0.0 0.00 0.00 0.00 86 1012.2
20240621111541 52 177 0.0 0.0 0.00 0.00 0.00 87 1012.2
20240621111041 52 177 0.0 0.0 0.00 0.00 0.00 87 1012.2
20240621110543 51 177 0.0 0.0 0.00 0.00 0.00 87 1012.3
20240621110042 51 177 0.0 0.0 0.00 0.00 0.00 88 1012.3
20240621105640 51 177 0.0 0.0 0.00 0.00 0.00 89 1012.3
20240621105039 51 177 0.0 0.0 0.00 0.00 0.00 89 1012.3
20240621104539 51 177 0.0 0.0 0.00 0.00 0.00 89 1012.3
20240621104037 52 177 0.0 0.0 0.00 0.00 0.00 88 1012.2
20240621103538 52 177 0.0 0.0 0.00 0.00 0.00 87 1012.2
20240621103052 52 177 0.0 0.0 0.00 0.00 0.00 87 1012.3
20240621102536 52 177 0.0 0.0 0.00 0.00 0.00 86 1012.2
20240621102033 53 177 0.0 0.0 0.00 0.00 0.00 86 1012.3
20240621101540 53 177 0.0 0.0 0.00 0.00 0.00 86 1012.2
20240621101032 53 177 0.0 0.0 0.00 0.00 0.00 86 1012.1
20240621100530 53 177 0.0 0.0 0.00 0.00 0.00 86 1012.1
20240621100029 54 177 0.0 0.0 0.00 0.00 0.00 86 1012.2
20240621095528 54 177 0.0 0.0 0.00 0.00 0.00 85 1012.2
20240621095027 54 177 0.0 0.0 0.00 0.00 0.00 85 1012.1
20240621094538 54 177 0.0 0.0 0.00 0.00 0.00 85 1012.1
20240621094026 55 177 0.0 0.0 0.00 0.00 0.00 85 1012.2
20240621093526 55 177 0.0 0.0 0.00 0.00 0.00 85 1012.2
20240621093025 55 177 0.0 0.0 0.00 0.00 0.00 85 1012.2
20240621092523 55 177 0.0 0.0 0.00 0.00 0.00 84 1012.1
20240621092022 56 177 0.0 0.0 0.00 0.00 0.00 84 1012.0
20240621091525 56 177 0.0 0.0 0.00 0.00 0.00 84 1012.1
20240621091021 56 177 0.0 0.0 0.00 0.00 0.00 83 1012.1
20240621090519 56 177 0.0 0.0 0.00 0.00 0.00 83 1012.1
20240621090019 57 177 0.0 0.0 0.00 0.00 0.00 83 1012.1
20240621085518 57 177 0.0 0.0 0.00 0.00 0.00 82 1012.2
20240621085017 57 177 0.0 0.0 0.00 0.00 0.00 82 1012.1
20240621084515 58 177 0.0 0.0 0.00 0.00 0.00 81 1012.1
20240621084015 58 177 0.0 0.0 0.00 0.00 0.00 81 1012.2
20240621083518 58 177 0.0 0.0 0.00 0.00 0.00 80 1012.2
20240621083022 58 177 0.0 0.0 0.00 0.00 0.00 79 1012.1
20240621082512 59 177 0.0 0.0 0.00 0.00 0.00 79 1012.1
20240621082011 59 177 0.0 0.0 0.00 0.00 0.00 78 1012.1
20240621081510 59 177 0.0 0.0 0.00 0.00 0.00 78 1012.2
20240621081009 60 177 0.0 0.0 0.00 0.00 0.00 77 1012.2
20240621080507 60 177 0.0 0.0 0.00 0.00 0.00 76 1012.2
20240621080006 60 177 0.0 0.0 0.00 0.00 0.00 74 1012.2
20240621075507 60 177 0.0 0.0 0.00 0.00 0.00 73 1012.2
20240621075007 61 177 0.0 0.0 0.00 0.00 0.00 72 1012.2
20240621074512 61 177 0.0 0.0 0.00 0.00 0.00 72 1012.2
20240621074010 61 177 0.0 0.0 0.00 0.00 0.00 74 1012.2
20240621073507 61 177 0.0 0.0 0.00 0.00 0.00 73 1012.1
20240621073006 61 177 0.0 0.0 0.00 0.00 0.00 72 1012.2
20240621072506 61 177 0.0 0.0 0.00 0.00 0.00 70 1012.2
20240621072007 62 177 0.0 0.0 0.00 0.00 0.00 69 1012.1
20240621071506 62 177 0.0 0.0 0.00 0.00 0.00 70 1012.1
20240621071006 62 177 0.0 0.0 0.00 0.00 0.00 70 1012.1
20240621070505 63 177 0.0 1.0 0.00 0.00 0.00 71 1012.2
20240621070005 63 177 0.0 1.0 0.00 0.00 0.00 70 1012.3
20240621065505 63 177 0.0 0.0 0.00 0.00 0.00 68 1012.2
20240621065005 64 177 0.0 0.0 0.00 0.00 0.00 69 1012.2
20240621064504 64 177 0.0 0.0 0.00 0.00 0.00 69 1012.1
20240621064004 64 177 0.0 0.0 0.00 0.00 0.00 67 1012.1
20240621063504 65 177 0.0 0.0 0.00 0.00 0.00 65 1012.1
20240621063004 65 177 0.0 0.0 0.00 0.00 0.00 65 1012.2
20240621062504 65 177 0.0 0.0 0.00 0.00 0.00 62 1012.2
20240621062004 66 177 0.0 0.0 0.00 0.00 0.00 64 1012.1
20240621061504 66 177 0.0 0.0 0.00 0.00 0.00 62 1012.1
20240621061004 66 177 0.0 0.0 0.00 0.00 0.00 59 1012.1
20240621060504 66 177 0.0 0.0 0.00 0.00 0.00 61 1012.1
20240621060005 67 177 0.0 0.0 0.00 0.00 0.00 59 1012.2
20240621055503 67 177 0.0 0.0 0.00 0.00 0.00 58 1012.2
20240621055003 67 177 0.0 0.0 0.00 0.00 0.00 63 1012.1
20240621054505 67 177 0.0 0.0 0.00 0.00 0.00 64 1012.1
20240621054003 68 177 0.0 0.0 0.00 0.00 0.00 60 1012.2
20240621053503 68 177 0.0 0.0 0.00 0.00 0.00 56 1012.1
20240621053006 68 177 0.0 0.0 0.00 0.00 0.00 58 1012.1
20240621052502 68 177 0.0 0.0 0.00 0.00 0.00 58 1012.1
20240621052002 68 177 0.0 0.0 0.00 0.00 0.00 58 1012.1
20240621051506 68 177 0.0 0.0 0.00 0.00 0.00 56 1012.2
20240621051003 68 177 0.0 0.0 0.00 0.00 0.00 57 1012.0
20240621050501 68 177 0.0 0.0 0.00 0.00 0.00 57 1012.1
20240621050101 68 177 0.0 0.0 0.00 0.00 0.00 55 1011.9
20240621045601 69 177 0.0 0.0 0.00 0.00 0.00 54 1012.0
20240621045100 68 177 0.0 0.0 0.00 0.00 0.00 53 1012.0
20240621044603 68 177 0.0 0.0 0.00 0.00 0.00 54 1012.1
20240621044059 68 177 0.0 1.0 0.00 0.00 0.00 58 1012.2
20240621043601 68 177 0.0 1.0 0.00 0.00 0.00 58 1012.2
20240621043100 68 177 0.0 0.0 0.00 0.00 0.00 58 1012.2
20240621042559 68 177 0.0 0.0 0.00 0.00 0.00 55 1012.1
20240621042059 68 177 0.0 0.0 0.00 0.00 0.00 54 1012.1
20240621041601 67 177 0.0 0.0 0.00 0.00 0.00 57 1012.1
20240621041058 67 177 0.0 0.0 0.00 0.00 0.00 55 1012.1
20240621040558 67 177 0.0 1.0 0.00 0.00 0.00 58 1012.1
20240621040108 67 177 0.0 1.0 0.00 0.00 0.00 59 1012.2
20240621035557 67 177 0.0 3.0 0.00 0.00 0.00 57 1012.2
20240621035057 67 177 0.0 3.0 0.00 0.00 0.00 57 1012.2
20240621034557 67 180 0.0 2.0 0.00 0.00 0.00 55 1012.3
20240621034057 68 198 0.0 1.0 0.00 0.00 0.00 56 1012.4
20240621033556 68 209 0.0 1.0 0.00 0.00 0.00 55 1012.4
20240621033057 68 214 0.0 8.0 0.00 0.00 0.00 55 1012.5
20240621032555 68 211 0.0 8.0 0.00 0.00 0.00 55 1012.5
20240621032058 69 207 1.0 4.0 0.00 0.00 0.00 56 1012.5
20240621031556 69 116 0.0 4.0 0.00 0.00 0.00 54 1012.5
20240621031055 69 23 0.0 2.0 0.00 0.00 0.00 49 1012.5
20240621030554 69 113 0.0 2.0 0.00 0.00 0.00 52 1012.4
20240621030054 69 85 0.0 2.0 0.00 0.00 0.00 52 1012.3
20240621025554 69 82 0.0 2.0 0.00 0.00 0.00 50 1012.2
20240621025054 69 318 0.0 1.0 0.00 0.00 0.00 53 1012.3
20240621024605 69 318 0.0 1.0 0.00 0.00 0.00 55 1012.3
20240621024054 69 308 0.0 2.0 0.00 0.00 0.00 54 1012.3
20240621023552 69 80 0.0 2.0 0.00 0.00 0.00 54 1012.4
20240621023102 69 286 0.0 2.0 0.00 0.00 0.00 54 1012.4
20240621022553 68 286 0.0 2.0 0.00 0.00 0.00 53 1012.5
20240621022051 68 105 0.0 2.0 0.00 0.00 0.00 56 1012.5
20240621021554 69 182 0.0 3.0 0.00 0.00 0.00 57 1012.5
20240621021051 69 121 0.0 4.0 0.00 0.00 0.00 55 1012.6
20240621020550 69 97 1.0 3.0 0.00 0.00 0.00 55 1012.6
20240621020058 69 211 0.0 2.0 0.00 0.00 0.00 55 1012.7
20240621015620 69 169 0.0 2.0 0.00 0.00 0.00 56 1012.7
20240621015049 69 98 0.0 2.0 0.00 0.00 0.00 53 1012.7
20240621014557 70 128 1.0 2.0 0.00 0.00 0.00 54 1012.7
20240621014051 70 248 0.0 2.0 0.00 0.00 0.00 52 1012.8
20240621013549 70 189 1.0 2.0 0.00 0.00 0.00 52 1012.8
20240621013049 71 355 0.0 2.0 0.00 0.00 0.00 52 1012.9
20240621012552 71 313 0.0 3.0 0.00 0.00 0.00 54 1012.9
20240621012048 71 315 0.0 3.0 0.00 0.00 0.00 51 1012.9
20240621011556 72 36 1.0 4.0 0.00 0.00 0.00 51 1012.9
20240621011049 72 37 1.0 4.0 0.00 0.00 0.00 49 1012.8
20240621010549 73 342 1.0 4.0 0.00 0.00 0.00 49 1012.7
20240621010054 73 31 1.0 4.0 0.00 0.00 0.00 48 1012.7
20240621005549 74 105 0.0 3.0 0.00 0.00 0.00 48 1012.6
20240621005050 74 90 1.0 4.0 0.00 0.00 0.00 47 1012.7
20240621004546 74 306 1.0 4.0 0.00 0.00 0.00 45 1012.7
20240621004046 74 5 1.0 4.0 0.00 0.00 0.00 46 1012.6
20240621003546 75 344 2.0 5.0 0.00 0.00 0.00 43 1012.6
20240621003047 75 213 1.0 5.0 0.00 0.00 0.00 41 1012.5